createdAt,value
2018-09-03T00:01:33.116Z,2.67
2018-09-03T00:04:02.114Z,1.83
2018-09-03T00:06:31.037Z,2.43
2018-09-03T00:08:59.994Z,2.10
2018-09-03T00:11:28.819Z,2.50
2018-09-03T00:13:57.756Z,2.63
2018-09-03T00:16:26.480Z,2.60
2018-09-03T00:18:55.287Z,2.20
2018-09-03T00:21:24.076Z,2.13
2018-09-03T00:23:52.658Z,2.37
2018-09-03T00:26:21.374Z,2.47
2018-09-03T00:28:50.465Z,2.50
2018-09-03T00:31:24.482Z,2.77
2018-09-03T00:33:58.416Z,2.80
2018-09-03T00:36:32.579Z,1.90
2018-09-03T00:39:06.726Z,2.40
2018-09-03T00:41:40.588Z,2.27
2018-09-03T00:44:14.315Z,2.60
2018-09-03T00:46:48.330Z,2.97
2018-09-03T00:49:17.289Z,2.70
2018-09-03T00:51:46.332Z,2.60
2018-09-03T00:54:15.137Z,2.60
2018-09-03T00:56:44.116Z,2.40
2018-09-03T00:59:13.002Z,2.40
2018-09-03T01:01:41.804Z,2.70
2018-09-03T01:04:10.885Z,2.27
2018-09-03T01:06:39.802Z,2.73
2018-09-03T01:09:09.175Z,2.60
2018-09-03T01:11:38.028Z,1.87
2018-09-03T01:14:06.859Z,1.90
2018-09-03T01:16:35.681Z,3.07
2018-09-03T01:19:04.689Z,2.40
2018-09-03T01:21:33.654Z,3.20
2018-09-03T01:24:02.594Z,2.17
2018-09-03T01:26:31.542Z,2.33
2018-09-03T01:29:00.533Z,3.23
2018-09-03T01:31:29.502Z,3.30
2018-09-03T01:33:58.437Z,2.87
2018-09-03T01:36:27.272Z,2.67
2018-09-03T01:38:56.030Z,2.83
2018-09-03T01:41:24.803Z,2.80
2018-09-03T01:43:53.597Z,2.57
2018-09-03T01:46:22.354Z,2.43
2018-09-03T01:48:51.016Z,2.83
2018-09-03T01:51:19.842Z,2.47
2018-09-03T01:53:48.576Z,2.23
2018-09-03T01:56:17.397Z,3.27
2018-09-03T01:58:46.147Z,3.40
2018-09-03T02:01:14.960Z,3.23
2018-09-03T02:03:43.682Z,3.50
2018-09-03T02:06:12.481Z,3.67
2018-09-03T02:08:41.262Z,3.20
2018-09-03T02:11:10.005Z,2.73
2018-09-03T02:13:38.923Z,3.10
2018-09-03T02:16:07.616Z,3.20
2018-09-03T02:18:36.408Z,3.00
2018-09-03T02:21:05.350Z,3.33
2018-09-03T02:23:34.264Z,3.17
2018-09-03T02:26:03.164Z,3.30
2018-09-03T02:28:31.945Z,3.00
2018-09-03T02:31:00.793Z,3.00
2018-09-03T02:33:29.504Z,3.90
2018-09-03T02:35:58.314Z,3.30
2018-09-03T02:38:27.026Z,2.87
2018-09-03T02:40:55.655Z,3.63
2018-09-03T02:43:24.525Z,2.90
2018-09-03T02:45:53.511Z,2.53
2018-09-03T02:48:22.250Z,2.57
2018-09-03T02:50:51.115Z,2.33
2018-09-03T02:53:20.035Z,3.63
2018-09-03T02:55:49.002Z,3.13
2018-09-03T02:58:17.950Z,2.70
2018-09-03T03:00:46.918Z,2.70
2018-09-03T03:03:15.845Z,3.63
2018-09-03T03:05:44.550Z,2.53
2018-09-03T03:08:13.481Z,3.43
2018-09-03T03:10:42.402Z,2.97
2018-09-03T03:13:11.069Z,3.23
2018-09-03T03:15:39.899Z,2.87
2018-09-03T03:18:08.972Z,3.37
2018-09-03T03:20:37.933Z,3.13
2018-09-03T03:23:07.007Z,3.17
2018-09-03T03:25:35.952Z,2.50
2018-09-03T03:28:04.848Z,3.00
2018-09-03T03:30:33.334Z,2.83
2018-09-03T03:33:02.196Z,2.97
2018-09-03T03:35:33.168Z,2.80
2018-09-03T03:38:02.106Z,3.00
2018-09-03T03:40:30.711Z,3.20
2018-09-03T03:42:59.468Z,2.77
2018-09-03T03:45:28.396Z,3.40
2018-09-03T03:47:57.481Z,3.27
2018-09-03T03:50:26.320Z,2.97
2018-09-03T03:52:55.210Z,3.30
2018-09-03T03:55:24.076Z,3.13
2018-09-03T03:57:52.727Z,2.60
2018-09-03T04:00:21.705Z,2.43
2018-09-03T04:02:50.605Z,2.93
2018-09-03T04:05:19.642Z,4.63
2018-09-03T04:07:48.473Z,3.67
2018-09-03T04:10:17.290Z,4.10
2018-09-03T04:12:51.410Z,3.50
2018-09-03T04:15:20.190Z,3.50
2018-09-03T04:17:49.263Z,3.50
2018-09-03T04:20:18.203Z,4.00
2018-09-03T04:22:47.120Z,3.10
2018-09-03T04:25:16.151Z,3.07
2018-09-03T04:27:45.031Z,3.30
2018-09-03T04:30:13.956Z,3.70
2018-09-03T04:32:42.814Z,3.07
2018-09-03T04:35:11.727Z,3.20
2018-09-03T04:37:40.534Z,3.63
2018-09-03T04:40:09.375Z,3.17
2018-09-03T04:42:38.241Z,3.60
2018-09-03T04:45:07.367Z,2.87
2018-09-03T04:47:36.142Z,3.20
2018-09-03T04:50:05.181Z,3.47
2018-09-03T05:01:23.174Z,3.30
2018-09-03T05:03:53.191Z,3.17
2018-09-03T05:06:23.957Z,3.10
2018-09-03T05:08:53.977Z,4.27
2018-09-03T05:11:22.698Z,3.40
2018-09-03T05:13:54.482Z,3.70
2018-09-03T05:16:23.103Z,3.60
2018-09-03T05:18:53.796Z,4.17
2018-09-03T05:21:23.251Z,3.50
2018-09-03T05:23:53.891Z,4.93
2018-09-03T05:26:22.640Z,3.80
2018-09-03T05:28:52.992Z,4.20
2018-09-03T05:31:23.615Z,4.20
2018-09-03T05:33:53.527Z,3.90
2018-09-03T05:36:25.043Z,3.93
2018-09-03T05:38:53.912Z,4.00
2018-09-03T05:44:23.441Z,3.60
2018-09-03T05:46:54.072Z,4.70
2018-09-03T05:49:42.658Z,4.77
2018-09-03T05:55:22.662Z,4.47
2018-09-03T05:57:54.619Z,4.23
2018-09-03T06:00:23.208Z,4.77
2018-09-03T06:02:52.787Z,4.20
2018-09-03T06:05:23.211Z,4.50
2018-09-03T06:07:52.987Z,4.90
2018-09-03T06:13:23.402Z,4.73
2018-09-03T06:15:53.622Z,5.10
2018-09-03T06:18:23.861Z,4.73
2018-09-03T06:20:54.087Z,5.70
2018-09-03T06:23:24.089Z,5.00
2018-09-03T06:25:56.565Z,5.00
2018-09-03T06:28:26.198Z,4.93
2018-09-03T06:30:55.667Z,4.63
2018-09-03T08:01:50.719Z,4.90
2018-09-03T08:04:37.316Z,4.63
2018-09-03T08:07:09.294Z,3.97
2018-09-03T12:26:53.830Z,13.43
2018-09-03T12:32:23.617Z,11.30
2018-09-03T12:37:48.107Z,13.53
2018-09-03T12:40:22.411Z,14.33
2018-09-03T12:42:53.372Z,11.97
2018-09-03T12:45:29.706Z,10.80
2018-09-03T12:49:57.700Z,10.63
2018-09-03T12:52:38.049Z,11.77
2018-09-03T12:57:50.482Z,11.83
2018-09-03T13:27:55.367Z,11.80
2018-09-03T13:30:24.845Z,12.47
2018-09-03T13:35:53.557Z,12.40
2018-09-03T13:55:51.657Z,13.97
2018-09-03T13:58:24.583Z,13.10
2018-09-03T14:03:54.415Z,15.40
2018-09-03T14:06:25.052Z,15.23
2018-09-03T14:58:15.401Z,14.83
2018-09-03T15:03:43.864Z,14.67
2018-09-03T15:06:12.680Z,15.33
2018-09-03T15:08:42.094Z,15.50
2018-09-03T15:11:14.633Z,13.90
2018-09-03T15:13:43.681Z,14.70
2018-09-03T15:16:14.082Z,14.13
2018-09-03T15:18:44.583Z,12.47
2018-09-03T15:21:13.408Z,14.10
2018-09-03T15:23:47.014Z,14.57
2018-09-03T15:26:20.124Z,11.90
2018-09-03T15:28:54.385Z,13.90
2018-09-03T15:31:35.289Z,13.90
2018-09-03T15:34:16.158Z,12.50
2018-09-03T15:37:06.597Z,12.90
2018-09-03T15:39:44.639Z,15.97
2018-09-03T15:42:16.559Z,15.10
2018-09-03T15:44:58.481Z,15.60
2018-09-03T15:47:30.795Z,14.03
2018-09-03T16:08:16.749Z,13.33
2018-09-03T16:10:45.382Z,11.90
2018-09-03T16:13:14.798Z,12.57
2018-09-03T16:18:29.327Z,12.80
2018-09-03T16:20:59.967Z,11.87
2018-09-03T16:23:46.044Z,13.03
2018-09-03T16:26:15.490Z,13.60
2018-09-03T16:28:44.259Z,12.90
2018-09-03T16:31:13.030Z,11.60
2018-09-03T16:33:42.131Z,12.67
2018-09-03T16:36:11.275Z,11.90
2018-09-03T16:38:40.056Z,11.70
2018-09-03T16:41:08.936Z,10.37
2018-09-03T16:43:37.755Z,11.63
2018-09-03T16:46:10.951Z,12.40
2018-09-03T16:48:39.934Z,11.43
2018-09-03T16:51:09.162Z,12.90
2018-09-03T16:53:38.379Z,12.37
2018-09-03T16:56:07.418Z,13.63
2018-09-03T16:58:36.210Z,13.73
2018-09-03T17:01:05.020Z,14.17
2018-09-03T17:03:33.774Z,14.30
2018-09-03T17:06:02.629Z,13.47
2018-09-03T17:08:31.463Z,15.00
2018-09-03T17:11:00.033Z,13.07
2018-09-03T17:13:28.957Z,12.63
2018-09-03T17:15:57.820Z,10.90
2018-09-03T17:18:26.596Z,12.03
2018-09-03T17:20:55.686Z,12.40
2018-09-03T17:23:24.312Z,12.47
2018-09-03T17:25:53.371Z,11.20
2018-09-03T17:28:22.211Z,12.03
2018-09-03T17:30:51.196Z,12.50
2018-09-03T17:33:20.087Z,13.43
2018-09-03T17:35:48.866Z,12.40
2018-09-03T17:38:17.471Z,12.10
2018-09-03T17:40:46.101Z,12.57
2018-09-03T17:43:22.213Z,13.67
2018-09-03T17:45:51.271Z,12.97
2018-09-03T17:48:20.346Z,14.57
2018-09-03T17:50:49.306Z,13.53
2018-09-03T17:53:20.970Z,13.07
2018-09-03T17:55:50.313Z,13.33
2018-09-03T17:58:19.352Z,12.43
2018-09-03T18:00:48.186Z,14.47
2018-09-03T18:03:17.536Z,13.87
2018-09-03T18:05:46.876Z,15.10
2018-09-03T18:08:15.819Z,14.50
2018-09-03T18:10:45.284Z,14.80
2018-09-03T18:13:13.879Z,13.87
2018-09-03T18:15:42.442Z,14.50
2018-09-03T18:18:11.075Z,14.70
2018-09-03T18:20:39.736Z,12.70
2018-09-03T18:23:08.546Z,15.00
2018-09-03T18:25:37.080Z,13.67
2018-09-03T18:28:05.696Z,12.13
2018-09-03T18:30:34.320Z,13.27
2018-09-03T18:33:02.982Z,15.27
2018-09-03T18:35:31.656Z,14.00
2018-09-03T18:38:00.442Z,15.27
2018-09-03T18:40:29.003Z,15.37
2018-09-03T18:42:57.559Z,13.93
2018-09-03T18:45:26.423Z,13.23
2018-09-03T18:47:55.420Z,13.60
2018-09-03T18:50:24.276Z,14.47
2018-09-03T18:52:52.967Z,15.50
2018-09-03T18:55:21.924Z,14.67
2018-09-03T18:57:50.972Z,14.93
2018-09-03T19:00:19.726Z,16.30
2018-09-03T19:02:48.431Z,15.30
2018-09-03T19:05:17.199Z,15.03
2018-09-03T19:08:39.435Z,14.30
2018-09-03T19:11:08.051Z,13.23
2018-09-03T19:13:36.636Z,14.87
2018-09-03T19:16:05.675Z,13.60
2018-09-03T19:18:34.326Z,14.20
2018-09-03T19:21:03.041Z,14.80
2018-09-03T19:23:31.677Z,14.20
2018-09-03T19:26:01.152Z,14.37
2018-09-03T19:28:33.554Z,13.67
2018-09-03T19:31:02.302Z,15.73
2018-09-03T19:33:31.739Z,17.47
2018-09-03T19:36:00.663Z,16.73
2018-09-03T19:41:21.771Z,15.20
2018-09-03T19:43:50.351Z,12.50
2018-09-03T19:46:19.173Z,12.60
2018-09-03T19:52:01.686Z,12.37
2018-09-03T19:54:30.717Z,13.60
2018-09-03T19:56:59.356Z,12.90
2018-09-03T19:59:30.783Z,12.30
2018-09-03T20:02:00.956Z,12.37
2018-09-03T20:04:29.913Z,12.97
2018-09-03T20:06:58.558Z,11.60
2018-09-03T20:09:28.585Z,11.83
2018-09-03T20:12:02.775Z,13.67
2018-09-03T20:14:32.125Z,12.90
2018-09-03T20:17:01.990Z,14.30
2018-09-03T20:19:32.992Z,15.20
2018-09-03T20:22:03.622Z,16.40
2018-09-03T20:24:32.759Z,14.60
2018-09-03T20:27:11.375Z,15.90
2018-09-03T20:29:40.196Z,17.57
2018-09-03T20:32:09.310Z,17.60
2018-09-03T20:34:37.849Z,18.93
2018-09-03T20:37:08.873Z,22.23
2018-09-03T20:39:39.431Z,20.00
2018-09-03T20:42:11.916Z,19.17
2018-09-03T20:44:41.164Z,20.40
2018-09-03T20:47:12.279Z,21.07
2018-09-03T20:49:43.335Z,21.30
2018-09-03T20:52:13.669Z,21.40
2018-09-03T20:54:48.403Z,22.33
2018-09-03T20:57:17.680Z,21.57
2018-09-03T20:59:47.803Z,21.50
2018-09-03T21:02:16.694Z,24.13
2018-09-03T21:04:45.490Z,23.50
2018-09-03T21:07:14.762Z,26.00
2018-09-03T21:09:44.459Z,25.27
2018-09-03T21:12:13.131Z,24.03
2018-09-03T21:14:42.454Z,25.20
2018-09-03T21:17:11.560Z,25.47
2018-09-03T21:19:41.376Z,26.20
2018-09-03T21:22:11.930Z,25.40
2018-09-03T21:24:40.865Z,26.27
2018-09-03T21:27:09.655Z,23.57
2018-09-03T21:29:40.466Z,28.23
2018-09-03T21:32:09.984Z,26.43
2018-09-03T21:34:39.367Z,23.50
2018-09-03T21:37:08.146Z,25.80
2018-09-03T21:39:37.144Z,23.87
2018-09-03T21:42:07.095Z,27.40
2018-09-03T21:44:37.119Z,28.07
2018-09-03T21:47:14.935Z,27.10
2018-09-03T21:49:44.548Z,24.77
2018-09-03T21:52:14.839Z,24.97
2018-09-03T21:54:44.206Z,26.83
2018-09-03T21:57:13.084Z,24.00
2018-09-03T21:59:42.098Z,22.27
2018-09-03T22:02:11.909Z,21.40
2018-09-03T22:04:43.645Z,20.90
2018-09-03T22:07:14.397Z,23.20
2018-09-03T22:09:44.480Z,22.37
2018-09-03T22:12:13.288Z,22.73
2018-09-03T22:14:43.418Z,20.83
2018-09-03T22:17:12.711Z,21.27
2018-09-03T22:19:42.186Z,20.97
2018-09-03T22:22:12.224Z,20.10
2018-09-03T22:24:43.335Z,18.97
2018-09-03T22:27:12.203Z,18.90
2018-09-03T22:29:40.776Z,18.13
2018-09-03T22:32:10.464Z,18.40
2018-09-03T22:34:39.175Z,17.23
2018-09-03T22:37:07.914Z,19.07
2018-09-03T22:39:43.430Z,20.40
2018-09-03T22:42:12.326Z,19.33
2018-09-03T22:44:41.352Z,18.40
2018-09-03T22:47:10.257Z,19.97
2018-09-03T22:49:38.878Z,19.70
2018-09-03T22:52:07.839Z,20.63
2018-09-03T22:54:36.996Z,19.97
2018-09-03T22:57:06.130Z,21.77
2018-09-03T22:59:35.078Z,17.90
2018-09-03T23:02:04.059Z,18.60
2018-09-03T23:04:33.064Z,21.30
2018-09-03T23:07:01.808Z,21.37
2018-09-03T23:09:30.894Z,21.63
2018-09-03T23:11:59.660Z,23.67
2018-09-03T23:14:28.471Z,22.53
2018-09-03T23:16:57.509Z,22.20
2018-09-03T23:19:26.502Z,22.50
2018-09-03T23:21:55.221Z,24.93
2018-09-03T23:24:24.636Z,22.80
2018-09-03T23:26:53.371Z,23.03
2018-09-03T23:29:22.497Z,23.70
2018-09-03T23:31:51.790Z,23.20
2018-09-03T23:34:20.565Z,23.90
2018-09-03T23:36:49.660Z,24.63
2018-09-03T23:39:18.371Z,23.00
2018-09-03T23:41:49.938Z,23.13
2018-09-03T23:44:18.911Z,22.70
2018-09-03T23:46:48.098Z,21.20
2018-09-03T23:49:16.858Z,23.77
2018-09-03T23:51:45.543Z,23.10
2018-09-03T23:54:14.475Z,20.80
2018-09-03T23:56:43.219Z,25.80
2018-09-03T23:59:12.659Z,23.40
